createdAt,value
2019-02-04T00:00:08.470Z,2.00
2019-02-04T00:02:37.266Z,2.00
2019-02-04T00:05:06.451Z,2.00
2019-02-04T00:07:35.175Z,2.00
2019-02-04T00:10:05.772Z,2.00
2019-02-04T00:12:34.638Z,2.00
2019-02-04T00:15:03.357Z,2.00
2019-02-04T00:17:32.066Z,2.00
2019-02-04T00:20:00.798Z,2.00
2019-02-04T00:22:29.490Z,2.00
2019-02-04T00:24:58.348Z,2.00
2019-02-04T00:27:27.179Z,2.10
2019-02-04T00:29:55.944Z,2.00
2019-02-04T00:32:24.862Z,2.10
2019-02-04T00:34:53.607Z,2.10
2019-02-04T00:37:22.409Z,2.10
2019-02-04T00:39:51.171Z,2.10
2019-02-04T00:42:20.016Z,2.10
2019-02-04T00:44:48.731Z,2.10
2019-02-04T00:47:19.875Z,2.10
2019-02-04T00:49:48.726Z,2.00
2019-02-04T00:52:17.530Z,2.00
2019-02-04T00:54:46.246Z,0.90
2019-02-04T00:57:14.990Z,2.10
2019-02-04T00:59:43.714Z,2.10
2019-02-04T01:02:12.913Z,2.10
2019-02-04T01:04:41.754Z,2.10
2019-02-04T01:07:10.546Z,2.10
2019-02-04T01:09:39.288Z,2.10
2019-02-04T01:12:08.027Z,2.10
2019-02-04T01:14:36.888Z,2.10
2019-02-04T01:17:05.629Z,2.10
2019-02-04T01:19:34.444Z,2.10
2019-02-04T01:22:03.210Z,2.10
2019-02-04T01:24:31.991Z,2.20
2019-02-04T01:27:00.847Z,2.10
2019-02-04T01:29:29.630Z,2.20
2019-02-04T01:31:58.384Z,2.10
2019-02-04T01:34:27.142Z,2.20
2019-02-04T01:36:55.918Z,2.30
2019-02-04T01:39:24.681Z,2.20
2019-02-04T01:41:53.397Z,2.20
2019-02-04T01:44:24.414Z,2.20
2019-02-04T01:46:53.506Z,2.20
2019-02-04T01:49:22.267Z,2.30
2019-02-04T01:51:51.011Z,2.30
2019-02-04T01:54:19.814Z,2.30
2019-02-04T01:56:48.598Z,2.30
2019-02-04T01:59:17.485Z,2.30
2019-02-04T02:01:46.570Z,2.30
2019-02-04T02:04:15.341Z,2.30
2019-02-04T02:06:44.059Z,2.30
2019-02-04T02:09:24.129Z,2.20
2019-02-04T02:11:52.941Z,2.20
2019-02-04T02:14:22.040Z,2.20
2019-02-04T02:16:50.787Z,2.20
2019-02-04T02:19:19.530Z,2.20
2019-02-04T02:21:48.406Z,2.30
2019-02-04T02:24:17.127Z,2.20
2019-02-04T02:26:45.853Z,2.20
2019-02-04T02:29:14.877Z,2.20
2019-02-04T02:32:02.919Z,2.20
2019-02-04T02:34:31.819Z,2.20
2019-02-04T02:37:00.643Z,2.20
2019-02-04T02:39:30.552Z,2.20
2019-02-04T02:41:59.386Z,2.20
2019-02-04T02:44:28.234Z,2.20
2019-02-04T02:46:57.025Z,2.20
2019-02-04T02:49:25.769Z,2.20
2019-02-04T02:51:54.495Z,2.20
2019-02-04T02:54:23.315Z,2.20
2019-02-04T02:56:52.222Z,2.20
2019-02-04T02:59:20.963Z,2.20
2019-02-04T03:01:51.083Z,2.20
2019-02-04T03:04:19.890Z,2.20
2019-02-04T03:06:48.602Z,2.20
2019-02-04T03:09:17.403Z,2.20
2019-02-04T03:11:46.493Z,2.20
2019-02-04T03:14:15.222Z,2.20
2019-02-04T03:16:43.927Z,2.20
2019-02-04T03:19:12.686Z,2.10
2019-02-04T03:21:41.452Z,2.10
2019-02-04T03:24:10.281Z,2.20
2019-02-04T03:26:38.996Z,2.10
2019-02-04T03:29:07.691Z,2.10
2019-02-04T03:31:39.283Z,2.20
2019-02-04T03:34:06.922Z,2.20
2019-02-04T03:36:35.657Z,2.20
2019-02-04T03:39:07.301Z,2.20
2019-02-04T03:41:36.022Z,2.20
2019-02-04T03:44:04.787Z,2.20
2019-02-04T03:46:33.632Z,2.20
2019-02-04T03:49:02.419Z,2.20
2019-02-04T03:51:31.169Z,2.20
2019-02-04T03:54:00.390Z,2.30
2019-02-04T03:56:29.110Z,2.30
2019-02-04T03:58:57.855Z,2.30
2019-02-04T04:01:26.643Z,2.40
2019-02-04T04:03:55.372Z,2.40
2019-02-04T04:06:24.134Z,2.40
2019-02-04T04:08:53.117Z,2.40
2019-02-04T04:11:21.867Z,2.40
2019-02-04T04:13:50.588Z,2.40
2019-02-04T04:16:19.462Z,2.40
2019-02-04T04:18:48.202Z,2.40
2019-02-04T04:21:17.019Z,2.40
2019-02-04T04:23:45.926Z,2.40
2019-02-04T04:26:14.747Z,2.40
2019-02-04T04:28:43.496Z,2.50
2019-02-04T04:31:12.182Z,2.40
2019-02-04T04:33:41.002Z,2.40
2019-02-04T04:36:11.994Z,2.30
2019-02-04T04:38:41.124Z,2.30
2019-02-04T04:41:09.908Z,2.30
2019-02-04T04:43:38.646Z,2.30
2019-02-04T04:46:07.454Z,2.20
2019-02-04T04:48:37.034Z,2.20
2019-02-04T04:51:05.738Z,2.20
2019-02-04T04:53:34.781Z,2.30
2019-02-04T04:56:03.525Z,2.20
2019-02-04T04:58:32.350Z,2.20
2019-02-04T05:01:01.188Z,2.20
2019-02-04T05:03:29.991Z,2.20
2019-02-04T05:05:58.685Z,2.20
2019-02-04T05:08:27.778Z,2.20
2019-02-04T05:10:56.550Z,2.20
2019-02-04T05:13:25.292Z,2.20
2019-02-04T05:15:54.018Z,2.20
2019-02-04T05:18:22.754Z,2.20
2019-02-04T05:20:51.548Z,2.20
2019-02-04T05:23:20.698Z,2.10
2019-02-04T05:25:49.429Z,2.10
2019-02-04T05:28:18.132Z,2.20
2019-02-04T05:30:46.834Z,2.20
2019-02-04T05:33:15.590Z,2.20
2019-02-04T05:35:44.378Z,2.20
2019-02-04T05:38:13.538Z,2.20
2019-02-04T05:40:43.176Z,2.20
2019-02-04T05:43:12.102Z,2.10
2019-02-04T05:45:40.878Z,2.20
2019-02-04T05:48:09.661Z,2.20
2019-02-04T05:50:38.447Z,2.30
2019-02-04T05:53:07.569Z,2.30
2019-02-04T05:55:36.288Z,2.30
2019-02-04T05:58:05.163Z,2.40
2019-02-04T06:00:43.358Z,2.40
2019-02-04T06:03:12.159Z,2.40
2019-02-04T06:05:41.638Z,2.40
2019-02-04T06:08:10.447Z,2.30
2019-02-04T06:10:39.246Z,2.30
2019-02-04T06:13:07.960Z,2.40
2019-02-04T06:15:36.705Z,2.40
2019-02-04T06:18:05.663Z,2.40
2019-02-04T06:20:34.821Z,2.40
2019-02-04T06:23:03.593Z,2.40
2019-02-04T06:25:32.374Z,2.40
2019-02-04T06:28:04.072Z,2.50
2019-02-04T06:30:32.838Z,2.60
2019-02-04T06:33:01.560Z,2.60
2019-02-04T06:35:30.557Z,2.60
2019-02-04T06:37:59.324Z,2.70
2019-02-04T06:40:28.140Z,2.70
2019-02-04T06:42:56.970Z,2.70
2019-02-04T06:45:25.708Z,2.70
2019-02-04T06:47:54.506Z,2.70
2019-02-04T06:50:23.675Z,2.70
2019-02-04T06:52:52.450Z,2.70
2019-02-04T06:55:24.195Z,2.70
2019-02-04T06:57:54.281Z,2.80
2019-02-04T07:00:25.079Z,2.80
2019-02-04T07:02:53.814Z,2.80
2019-02-04T07:05:22.539Z,2.80
2019-02-04T07:07:51.358Z,2.80
2019-02-04T07:10:21.622Z,2.80
2019-02-04T07:12:50.347Z,2.80
2019-02-04T07:15:19.135Z,2.80
2019-02-04T07:17:47.906Z,2.80
2019-02-04T07:20:22.235Z,2.80
2019-02-04T07:22:53.923Z,2.80
2019-02-04T07:25:23.601Z,2.80
2019-02-04T07:27:52.386Z,2.80
2019-02-04T07:30:23.068Z,2.70
2019-02-04T07:32:52.261Z,2.70
2019-02-04T07:35:21.055Z,2.70
2019-02-04T07:37:49.934Z,2.70
2019-02-04T07:40:20.820Z,2.70
2019-02-04T07:42:49.951Z,2.70
2019-02-04T07:45:18.758Z,2.70
2019-02-04T07:47:47.855Z,2.70
2019-02-04T07:50:16.744Z,2.70
2019-02-04T07:52:45.474Z,2.80
2019-02-04T07:55:14.304Z,2.80
2019-02-04T07:57:43.028Z,2.80
2019-02-04T08:00:17.657Z,2.80
2019-02-04T08:02:46.885Z,2.80
2019-02-04T08:05:15.668Z,2.80
2019-02-04T08:07:44.396Z,2.80
2019-02-04T08:10:13.244Z,2.90
2019-02-04T08:12:41.958Z,2.80
2019-02-04T08:15:15.890Z,2.80
2019-02-04T08:17:44.650Z,2.90
2019-02-04T08:20:15.556Z,2.90
2019-02-04T08:22:44.279Z,2.90
2019-02-04T08:25:13.490Z,2.90
2019-02-04T08:27:42.351Z,2.90
2019-02-04T08:30:20.706Z,3.00
2019-02-04T08:32:49.474Z,3.00
2019-02-04T08:35:18.171Z,3.00
2019-02-04T08:37:46.948Z,3.00
2019-02-04T08:40:18.106Z,3.10
2019-02-04T08:42:46.889Z,3.10
2019-02-04T08:45:16.023Z,3.10
2019-02-04T08:47:44.892Z,3.10
2019-02-04T08:50:15.757Z,3.10
2019-02-04T08:52:44.460Z,3.20
2019-02-04T08:55:13.287Z,3.20
2019-02-04T08:57:42.672Z,3.20
2019-02-04T09:00:14.676Z,3.30
2019-02-04T09:02:43.380Z,3.30
2019-02-04T09:05:12.786Z,3.30
2019-02-04T09:07:41.579Z,3.30
2019-02-04T09:10:14.830Z,3.30
2019-02-04T09:12:42.406Z,3.30
2019-02-04T09:15:12.339Z,3.40
2019-02-04T09:17:41.133Z,3.40
2019-02-04T09:20:11.618Z,3.40
2019-02-04T09:22:40.496Z,3.40
2019-02-04T09:25:12.076Z,3.40
2019-02-04T09:27:40.970Z,3.40
2019-02-04T09:30:19.360Z,3.40
2019-02-04T09:32:51.079Z,3.50
2019-02-04T09:35:23.483Z,3.50
2019-02-04T09:37:53.559Z,3.50
2019-02-04T09:40:25.034Z,3.50
2019-02-04T09:42:53.865Z,3.50
2019-02-04T09:45:25.463Z,3.60
2019-02-04T09:47:53.178Z,3.60
2019-02-04T09:50:22.687Z,3.60
2019-02-04T09:52:51.463Z,3.50
2019-02-04T09:55:22.647Z,3.60
2019-02-04T09:57:51.425Z,3.60
2019-02-04T10:00:22.550Z,3.60
2019-02-04T10:02:51.307Z,3.60
2019-02-04T10:05:20.190Z,3.60
2019-02-04T10:07:48.946Z,3.60
2019-02-04T10:10:19.874Z,3.60
2019-02-04T10:12:48.696Z,3.60
2019-02-04T10:15:20.126Z,3.60
2019-02-04T10:17:48.931Z,3.60
2019-02-04T10:20:17.713Z,3.60
2019-02-04T10:22:46.471Z,3.60
2019-02-04T10:25:17.947Z,3.60
2019-02-04T10:27:46.721Z,3.60
2019-02-04T10:30:17.824Z,3.70
2019-02-04T10:32:46.713Z,3.70
2019-02-04T10:35:17.184Z,3.70
2019-02-04T10:37:46.701Z,3.80
2019-02-04T10:40:19.709Z,3.80
2019-02-04T10:42:48.458Z,3.80
2019-02-04T10:45:17.766Z,3.80
2019-02-04T10:47:46.564Z,3.80
2019-02-04T10:50:26.418Z,3.80
2019-02-04T10:52:55.183Z,3.80
2019-02-04T10:55:24.023Z,3.80
2019-02-04T10:57:52.809Z,3.80
2019-02-04T11:00:23.500Z,3.80
2019-02-04T11:02:52.301Z,3.70
2019-02-04T11:05:23.516Z,3.60
2019-02-04T11:07:52.449Z,3.60
2019-02-04T11:10:23.487Z,3.40
2019-02-04T11:12:52.338Z,3.30
2019-02-04T11:15:22.345Z,3.30
2019-02-04T11:17:52.826Z,3.20
2019-02-04T11:20:23.766Z,3.10
2019-02-04T11:22:52.689Z,2.90
2019-02-04T11:25:21.506Z,2.80
2019-02-04T11:27:50.361Z,2.70
2019-02-04T11:30:30.764Z,2.70
2019-02-04T11:32:59.756Z,2.60
2019-02-04T11:35:28.610Z,2.60
2019-02-04T11:37:57.568Z,2.60
2019-02-04T11:40:29.983Z,2.60
2019-02-04T11:42:58.785Z,2.50
2019-02-04T11:45:28.943Z,2.50
2019-02-04T11:47:57.878Z,2.50
2019-02-04T11:50:26.726Z,2.50
2019-02-04T11:52:55.518Z,2.50
2019-02-04T11:55:24.721Z,2.50
2019-02-04T11:57:53.534Z,2.50
2019-02-04T12:00:24.514Z,2.40
2019-02-04T12:02:53.879Z,2.30
2019-02-04T12:05:22.775Z,2.30
2019-02-04T12:07:51.619Z,2.30
2019-02-04T12:10:25.742Z,2.20
2019-02-04T12:12:54.730Z,2.20
2019-02-04T12:15:23.718Z,2.10
2019-02-04T12:17:52.495Z,2.00
2019-02-04T12:20:21.311Z,1.90
2019-02-04T12:22:50.060Z,2.00
2019-02-04T12:25:22.743Z,2.00
2019-02-04T12:27:51.650Z,2.00
2019-02-04T12:30:23.022Z,2.00
2019-02-04T12:32:51.767Z,1.90
2019-02-04T12:35:20.558Z,1.90
2019-02-04T12:37:49.367Z,1.90
2019-02-04T12:40:18.164Z,1.90
2019-02-04T12:42:47.016Z,1.80
2019-02-04T12:45:18.630Z,1.70
2019-02-04T12:47:48.295Z,1.70
2019-02-04T12:50:18.907Z,1.70
2019-02-04T12:52:50.570Z,1.70
2019-02-04T12:55:22.209Z,1.70
2019-02-04T12:57:50.907Z,1.70
2019-02-04T13:00:21.525Z,1.70
2019-02-04T13:02:50.289Z,1.70
2019-02-04T13:05:27.530Z,1.80
2019-02-04T13:07:56.298Z,1.80
2019-02-04T13:10:25.429Z,1.80
2019-02-04T13:12:54.216Z,1.80
2019-02-04T13:15:23.066Z,1.80
2019-02-04T13:17:51.818Z,1.80
2019-02-04T13:20:20.654Z,1.80
2019-02-04T13:22:49.378Z,1.90
2019-02-04T13:25:20.703Z,1.90
2019-02-04T13:27:49.544Z,1.90
2019-02-04T13:30:20.656Z,1.90
2019-02-04T13:32:49.506Z,1.90
2019-02-04T13:35:18.448Z,2.00
2019-02-04T13:37:47.379Z,2.00
2019-02-04T13:40:22.146Z,2.00
2019-02-04T13:42:52.713Z,2.00
2019-02-04T13:45:21.431Z,2.00
2019-02-04T13:47:50.226Z,2.00
2019-02-04T13:50:19.978Z,2.00
2019-02-04T13:52:48.899Z,2.00
2019-02-04T13:55:20.420Z,2.10
2019-02-04T13:57:49.310Z,2.10
2019-02-04T14:00:19.256Z,2.10
2019-02-04T14:02:58.542Z,2.10
2019-02-04T14:05:18.410Z,2.10
2019-02-04T14:07:47.147Z,2.10
2019-02-04T14:10:28.421Z,2.10
2019-02-04T14:12:57.178Z,2.10
2019-02-04T14:15:26.092Z,2.10
2019-02-04T14:17:56.694Z,2.10
2019-02-04T14:20:25.625Z,2.20
2019-02-04T14:22:54.550Z,2.20
2019-02-04T14:25:23.300Z,2.20
2019-02-04T14:27:54.382Z,2.20
2019-02-04T14:30:28.341Z,2.30
2019-02-04T14:32:57.183Z,2.30
2019-02-04T14:35:25.954Z,2.40
2019-02-04T14:37:54.907Z,2.30
2019-02-04T14:40:23.850Z,2.40
2019-02-04T14:42:56.227Z,2.40
2019-02-04T14:46:06.236Z,2.50
2019-02-04T14:49:31.547Z,2.50
2019-02-04T14:52:28.624Z,2.50
2019-02-04T14:55:46.794Z,2.50
2019-02-04T14:58:23.997Z,2.50
2019-02-04T15:01:29.137Z,2.60
2019-02-04T15:04:48.517Z,2.50
2019-02-04T15:07:56.098Z,2.60
2019-02-04T15:10:59.092Z,2.60
2019-02-04T15:13:50.088Z,2.60
2019-02-04T15:16:47.154Z,2.70
2019-02-04T15:20:08.266Z,2.70
2019-02-04T15:23:15.554Z,2.70
2019-02-04T15:26:01.969Z,2.80
2019-02-04T15:29:11.262Z,2.70
2019-02-04T15:32:05.714Z,2.80
2019-02-04T15:35:16.230Z,2.80
2019-02-04T15:38:22.318Z,2.80
2019-02-04T15:41:13.927Z,2.80
2019-02-04T15:43:56.530Z,2.80
2019-02-04T15:47:10.191Z,2.80
2019-02-04T15:50:35.865Z,2.90
2019-02-04T15:53:06.230Z,2.90
2019-02-04T15:55:35.247Z,2.90
2019-02-04T15:58:04.160Z,3.00
2019-02-04T16:00:32.893Z,3.00
2019-02-04T16:03:02.092Z,3.00
2019-02-04T16:05:30.994Z,3.00
2019-02-04T16:08:02.305Z,3.00
2019-02-04T16:10:31.046Z,3.00
2019-02-04T16:12:59.768Z,3.00
2019-02-04T16:15:28.481Z,3.10
2019-02-04T16:17:57.685Z,3.10
2019-02-04T16:20:26.502Z,3.10
2019-02-04T16:23:14.527Z,3.10
2019-02-04T16:25:43.274Z,3.10
2019-02-04T16:28:12.059Z,3.20
2019-02-04T16:30:40.831Z,3.20
2019-02-04T16:33:09.548Z,3.20
2019-02-04T16:35:38.338Z,3.20
2019-02-04T16:38:07.838Z,3.20
2019-02-04T16:40:36.638Z,3.20
2019-02-04T16:43:05.453Z,3.30
2019-02-04T16:45:36.890Z,3.30
2019-02-04T16:48:05.614Z,3.30
2019-02-04T16:50:34.334Z,3.30
2019-02-04T16:53:10.679Z,3.30
2019-02-04T16:55:33.662Z,3.30
2019-02-04T16:58:02.483Z,3.30
2019-02-04T17:00:31.961Z,3.30
2019-02-04T17:03:00.702Z,3.30
2019-02-04T17:05:29.538Z,3.30
2019-02-04T17:07:58.413Z,3.30
2019-02-04T17:10:27.326Z,3.30
2019-02-04T17:12:56.072Z,3.20
2019-02-04T17:15:27.751Z,3.20
2019-02-04T17:17:56.531Z,3.20
2019-02-04T17:20:30.535Z,3.20
2019-02-04T17:22:59.408Z,3.20
2019-02-04T17:25:28.333Z,3.20
2019-02-04T17:27:57.234Z,3.20
2019-02-04T17:30:26.050Z,3.30
2019-02-04T17:32:55.103Z,3.30
2019-02-04T17:35:24.385Z,3.30
2019-02-04T17:37:53.141Z,3.30
2019-02-04T17:40:22.134Z,3.30
2019-02-04T17:42:51.270Z,3.30
2019-02-04T17:45:20.118Z,3.30
2019-02-04T17:47:49.464Z,3.30
2019-02-04T17:50:19.101Z,3.30
2019-02-04T17:52:47.857Z,3.30
2019-02-04T17:55:18.688Z,3.30
2019-02-04T17:57:48.471Z,3.30
2019-02-04T18:00:27.342Z,3.30
2019-02-04T18:02:56.200Z,3.30
2019-02-04T18:05:24.994Z,3.30
2019-02-04T18:07:53.848Z,3.30
2019-02-04T18:10:22.634Z,3.30
2019-02-04T18:12:51.846Z,3.30
2019-02-04T18:15:20.718Z,3.30
2019-02-04T18:17:49.470Z,3.40
2019-02-04T18:20:18.337Z,3.40
2019-02-04T18:22:47.202Z,3.40
2019-02-04T18:25:16.131Z,3.40
2019-02-04T18:27:44.920Z,3.40
2019-02-04T18:30:16.116Z,3.40
2019-02-04T18:32:45.067Z,3.40
2019-02-04T18:35:15.563Z,3.40
2019-02-04T18:37:44.351Z,3.40
2019-02-04T18:40:14.248Z,3.40
2019-02-04T18:42:43.327Z,3.40
2019-02-04T18:45:17.479Z,3.40
2019-02-04T18:47:46.402Z,3.40
2019-02-04T18:50:15.714Z,3.40
2019-02-04T18:52:44.934Z,3.40
2019-02-04T18:55:16.631Z,3.40
2019-02-04T18:57:45.597Z,3.40
2019-02-04T19:00:17.239Z,3.40
2019-02-04T19:02:48.986Z,3.40
2019-02-04T19:05:18.116Z,3.40
2019-02-04T19:07:46.959Z,3.40
2019-02-04T19:10:17.230Z,3.40
2019-02-04T19:12:45.990Z,3.30
2019-02-04T19:15:16.718Z,3.30
2019-02-04T19:17:45.546Z,3.30
2019-02-04T19:20:16.658Z,3.30
2019-02-04T19:22:45.455Z,3.30
2019-02-04T19:25:15.078Z,3.30
2019-02-04T19:27:43.995Z,3.40
2019-02-04T19:30:19.511Z,3.40
2019-02-04T19:32:48.478Z,3.40
2019-02-04T19:35:17.526Z,3.40
2019-02-04T19:37:46.354Z,3.40
2019-02-04T19:40:15.305Z,3.40
2019-02-04T19:42:44.071Z,3.40
2019-02-04T19:45:15.385Z,3.40
2019-02-04T19:47:44.187Z,3.40
2019-02-04T19:50:19.599Z,3.40
2019-02-04T19:52:48.422Z,3.40
2019-02-04T19:55:17.150Z,3.40
2019-02-04T19:57:45.867Z,3.40
2019-02-04T20:00:20.509Z,3.40
2019-02-04T20:03:00.125Z,3.40
2019-02-04T20:05:29.095Z,3.40
2019-02-04T20:07:57.810Z,3.40
2019-02-04T20:10:27.246Z,3.40
2019-02-04T20:12:56.007Z,3.40
2019-02-04T20:15:26.776Z,3.40
2019-02-04T20:17:55.699Z,3.40
2019-02-04T20:20:24.947Z,3.40
2019-02-04T20:22:53.880Z,3.40
2019-02-04T20:25:24.565Z,3.40
2019-02-04T20:27:53.308Z,3.40
2019-02-04T20:30:25.195Z,3.40
2019-02-04T20:32:53.970Z,3.40
2019-02-04T20:35:22.690Z,3.40
2019-02-04T20:37:51.470Z,3.50
2019-02-04T20:40:21.043Z,3.50
2019-02-04T20:42:49.979Z,3.50
2019-02-04T20:45:19.022Z,3.50
2019-02-04T20:47:48.095Z,3.50
2019-02-04T20:50:19.819Z,3.40
2019-02-04T20:52:48.602Z,3.50
2019-02-04T20:55:17.619Z,3.50
2019-02-04T20:57:46.325Z,3.50
2019-02-04T21:00:18.262Z,3.50
2019-02-04T21:02:46.989Z,3.50
2019-02-04T21:05:15.986Z,3.50
2019-02-04T21:07:44.812Z,3.50
2019-02-04T21:10:16.020Z,3.50
2019-02-04T21:12:44.886Z,3.50
2019-02-04T21:15:14.443Z,3.50
2019-02-04T21:17:43.380Z,3.50
2019-02-04T21:20:14.948Z,3.50
2019-02-04T21:22:43.766Z,3.50
2019-02-04T21:25:12.508Z,3.50
2019-02-04T21:27:41.347Z,3.50
2019-02-04T21:30:22.250Z,3.50
2019-02-04T21:32:51.026Z,3.60
2019-02-04T21:35:19.778Z,3.60
2019-02-04T21:37:48.566Z,3.60
2019-02-04T21:40:17.447Z,3.60
2019-02-04T21:42:48.924Z,3.60
2019-02-04T21:45:19.236Z,3.60
2019-02-04T21:47:47.982Z,3.60
2019-02-04T21:50:18.456Z,3.60
2019-02-04T21:52:47.321Z,3.70
2019-02-04T21:55:16.294Z,3.70
2019-02-04T21:57:47.648Z,3.70
2019-02-04T22:00:18.949Z,3.70
2019-02-04T22:02:47.760Z,3.70
2019-02-04T22:05:17.321Z,3.70
2019-02-04T22:07:46.966Z,3.80
2019-02-04T22:10:19.510Z,3.80
2019-02-04T22:12:48.306Z,3.80
2019-02-04T22:15:19.895Z,3.80
2019-02-04T22:17:48.820Z,3.80
2019-02-04T22:20:18.087Z,3.80
2019-02-04T22:22:47.035Z,3.80
2019-02-04T22:25:19.718Z,3.80
2019-02-04T22:27:47.499Z,3.80
2019-02-04T22:30:20.947Z,3.80
2019-02-04T22:32:49.783Z,3.80
2019-02-04T22:35:18.612Z,3.90
2019-02-04T22:37:47.350Z,3.90
2019-02-04T22:40:19.036Z,3.90
2019-02-04T22:42:47.890Z,3.90
2019-02-04T22:45:16.742Z,3.90
2019-02-04T22:47:45.478Z,3.90
2019-02-04T22:50:25.952Z,3.90
2019-02-04T22:52:54.670Z,3.90
2019-02-04T22:55:31.708Z,3.90
2019-02-04T22:57:54.260Z,4.00
2019-02-04T23:00:50.900Z,3.90
2019-02-04T23:03:21.120Z,3.90
2019-02-04T23:05:49.910Z,4.00
2019-02-04T23:08:20.831Z,4.00
2019-02-04T23:10:50.447Z,4.00
2019-02-04T23:13:19.203Z,4.00
2019-02-04T23:15:48.099Z,4.00
2019-02-04T23:18:17.002Z,4.00
2019-02-04T23:20:45.882Z,4.00
2019-02-04T23:23:14.602Z,4.00
2019-02-04T23:25:43.935Z,4.00
2019-02-04T23:28:12.786Z,4.00
2019-02-04T23:30:41.642Z,4.00
2019-02-04T23:33:10.370Z,4.00
2019-02-04T23:35:39.126Z,4.10
2019-02-04T23:38:07.937Z,4.10
2019-02-04T23:40:36.660Z,4.10
2019-02-04T23:43:05.498Z,4.10
2019-02-04T23:45:34.342Z,4.10
2019-02-04T23:48:03.190Z,4.10
2019-02-04T23:50:31.962Z,4.10
2019-02-04T23:53:00.670Z,4.10
2019-02-04T23:55:29.485Z,4.10
2019-02-04T23:57:58.333Z,4.10
